Time;durP1;ratioP1;P1;durP2;ratioP2;P2;SDS_P1;SDS_P2;PMS_P1;PMS_P2;Temp;Humidity;BMP_temperature;BMP_pressure;BME280_temperature;BME280_humidity;BME280_pressure;Samples;Min_cycle;Max_cycle;Signal;HPM_P1;HPM_P2
2024/01/27 00:00:39;;;;;;;5.70;2.60;;;3.90;99.90;;;;;;5093741;28;20119;-72
2024/01/27 00:03:05;;;;;;;7.47;2.40;;;3.80;99.90;;;;;;5094732;28;20020;-72
2024/01/27 00:05:31;;;;;;;5.33;2.70;;;3.80;99.90;;;;;;5094405;28;20356;-72
2024/01/27 00:07:57;;;;;;;9.80;2.77;;;3.80;99.90;;;;;;5093528;28;20024;-72
2024/01/27 00:10:22;;;;;;;7.10;2.63;;;3.90;99.90;;;;;;5092910;28;20411;-72
2024/01/27 00:12:48;;;;;;;8.17;2.50;;;3.90;99.90;;;;;;5094676;28;20035;-72
2024/01/27 00:15:13;;;;;;;4.23;2.10;;;4.00;99.90;;;;;;5092786;28;20051;-84
2024/01/27 00:17:39;;;;;;;4.10;2.00;;;3.90;99.90;;;;;;5093368;28;20024;-72
2024/01/27 00:20:06;;;;;;;4.77;1.93;;;3.90;99.90;;;;;;5094520;28;20020;-72
2024/01/27 00:22:31;;;;;;;4.10;2.30;;;3.80;99.90;;;;;;5093422;28;20095;-74
2024/01/27 00:24:57;;;;;;;4.13;2.00;;;3.80;99.90;;;;;;5092654;28;20218;-71
2024/01/27 00:27:23;;;;;;;5.13;2.43;;;3.90;99.90;;;;;;5092631;28;20449;-72
2024/01/27 00:29:48;;;;;;;4.77;2.00;;;3.90;99.90;;;;;;5093825;28;20024;-73
2024/01/27 00:32:14;;;;;;;5.00;2.17;;;3.70;99.90;;;;;;5093205;28;20065;-72
2024/01/27 00:34:39;;;;;;;4.57;2.20;;;3.70;99.90;;;;;;5093990;28;20106;-72
2024/01/27 00:37:05;;;;;;;4.03;2.40;;;3.70;99.90;;;;;;5094410;28;20028;-72
2024/01/27 00:39:32;;;;;;;4.43;2.10;;;3.60;99.90;;;;;;5093305;28;20364;-73
2024/01/27 00:41:59;;;;;;;7.07;2.63;;;3.70;99.90;;;;;;5097829;28;20047;-72
2024/01/27 00:44:24;;;;;;;5.10;2.30;;;3.60;99.90;;;;;;5095541;28;20023;-72
2024/01/27 00:46:50;;;;;;;5.10;2.23;;;3.50;99.90;;;;;;5096131;28;20020;-71
2024/01/27 00:49:16;;;;;;;3.50;2.07;;;3.50;99.90;;;;;;5095607;28;20031;-83
2024/01/27 00:51:41;;;;;;;3.27;1.90;;;3.50;99.90;;;;;;5096111;28;20024;-72
2024/01/27 00:54:07;;;;;;;6.90;2.57;;;3.50;99.90;;;;;;5096066;28;20342;-72
2024/01/27 00:56:33;;;;;;;9.40;2.97;;;3.40;99.90;;;;;;5095322;28;20053;-72
2024/01/27 00:58:58;;;;;;;9.80;3.70;;;3.50;99.90;;;;;;5095899;28;20031;-72
2024/01/27 01:01:24;;;;;;;7.57;2.90;;;3.70;99.90;;;;;;5113623;28;20028;-72
2024/01/27 01:03:50;;;;;;;7.30;3.00;;;3.70;99.90;;;;;;5095483;28;20045;-72
2024/01/27 01:06:15;;;;;;;4.07;2.93;;;3.70;99.90;;;;;;5095551;28;20016;-72
2024/01/27 01:08:41;;;;;;;8.37;3.40;;;3.80;99.90;;;;;;5093436;28;20116;-74
2024/01/27 01:11:06;;;;;;;13.40;4.10;;;4.00;99.90;;;;;;5112197;28;20027;-72
2024/01/27 01:13:32;;;;;;;9.40;4.23;;;4.00;99.90;;;;;;5092959;28;20031;-76
2024/01/27 01:15:57;;;;;;;10.53;3.83;;;4.10;99.90;;;;;;5112715;28;20487;-72
2024/01/27 01:18:23;;;;;;;5.97;3.33;;;4.20;99.90;;;;;;5094407;28;20030;-72
2024/01/27 01:20:48;;;;;;;7.20;3.93;;;4.30;99.90;;;;;;5093994;28;20159;-72
2024/01/27 01:23:14;;;;;;;6.10;3.33;;;4.30;99.90;;;;;;5094897;28;20027;-72
2024/01/27 01:25:40;;;;;;;6.93;3.63;;;4.20;99.90;;;;;;5094355;28;20140;-72
2024/01/27 01:28:05;;;;;;;6.97;3.53;;;4.20;99.90;;;;;;5094544;28;20030;-72
2024/01/27 01:30:31;;;;;;;5.13;2.77;;;4.20;99.90;;;;;;5094531;28;20461;-71
2024/01/27 01:32:57;;;;;;;6.63;3.13;;;4.20;99.90;;;;;;5095353;28;20027;-71
2024/01/27 01:35:22;;;;;;;7.83;3.67;;;4.10;99.90;;;;;;5094749;28;20107;-75
2024/01/27 01:37:48;;;;;;;8.77;3.83;;;4.10;99.90;;;;;;5094475;28;20134;-72
2024/01/27 01:40:15;;;;;;;6.73;3.20;;;4.10;99.90;;;;;;5113125;28;20020;-71
2024/01/27 01:42:41;;;;;;;8.13;3.77;;;4.20;99.90;;;;;;5088773;28;20059;-72
2024/01/27 01:45:08;;;;;;;8.67;3.60;;;4.20;99.90;;;;;;5091950;28;20381;-72
2024/01/27 01:47:34;;;;;;;8.47;3.93;;;4.20;99.90;;;;;;5091713;28;20057;-72
2024/01/27 01:50:00;;;;;;;6.60;3.77;;;4.30;99.90;;;;;;5090284;28;20073;-72
2024/01/27 01:52:26;;;;;;;8.10;3.70;;;4.10;99.90;;;;;;5093160;28;20024;-72
2024/01/27 01:54:51;;;;;;;8.83;3.90;;;4.20;99.90;;;;;;5092681;28;20024;-72
2024/01/27 01:57:17;;;;;;;3.80;2.63;;;4.20;99.90;;;;;;5092297;28;20028;-72
2024/01/27 01:59:43;;;;;;;6.73;2.80;;;4.10;99.90;;;;;;5091197;28;20123;-72
2024/01/27 02:02:09;;;;;;;6.70;2.93;;;3.90;99.90;;;;;;5092993;28;20435;-72
2024/01/27 02:04:41;;;;;;;6.30;3.00;;;3.90;99.90;;;;;;5090867;28;20425;-72
2024/01/27 02:07:07;;;;;;;6.13;3.23;;;3.80;99.90;;;;;;5091691;28;20048;-72
2024/01/27 02:09:33;;;;;;;8.80;2.87;;;3.70;99.90;;;;;;5091217;28;20420;-72
2024/01/27 02:11:58;;;;;;;7.03;2.63;;;3.60;99.90;;;;;;5091724;28;20028;-72
2024/01/27 02:14:26;;;;;;;4.50;2.50;;;3.60;99.90;;;;;;5090889;28;20372;-73
2024/01/27 02:16:52;;;;;;;4.33;2.33;;;3.60;99.90;;;;;;5091480;28;20024;-72
2024/01/27 02:19:17;;;;;;;6.60;2.63;;;3.50;99.90;;;;;;5092883;28;20057;-72
2024/01/27 02:21:43;;;;;;;5.43;2.77;;;3.40;99.90;;;;;;5092321;28;20020;-71
2024/01/27 02:24:09;;;;;;;7.57;3.30;;;3.40;99.90;;;;;;5091501;28;20074;-72
2024/01/27 02:26:35;;;;;;;5.67;2.70;;;3.40;99.90;;;;;;5090917;28;20073;-72
2024/01/27 02:29:00;;;;;;;5.43;2.40;;;3.50;99.90;;;;;;5091494;28;20121;-71
2024/01/27 02:31:26;;;;;;;7.50;2.90;;;3.40;99.90;;;;;;5090940;28;20107;-72
2024/01/27 02:33:52;;;;;;;6.03;3.27;;;3.40;99.90;;;;;;5092678;28;20063;-72
2024/01/27 02:36:17;;;;;;;8.33;2.50;;;3.50;99.90;;;;;;5091323;28;20024;-72
2024/01/27 02:38:43;;;;;;;5.67;2.80;;;3.40;99.90;;;;;;5092094;28;20032;-72
2024/01/27 02:41:11;;;;;;;5.07;2.70;;;3.30;99.90;;;;;;5092334;28;20024;-72
2024/01/27 02:43:36;;;;;;;7.40;2.60;;;3.30;99.90;;;;;;5090818;28;20051;-72
2024/01/27 02:46:02;;;;;;;7.67;3.10;;;3.20;99.90;;;;;;5091339;28;20449;-72
2024/01/27 02:48:27;;;;;;;4.73;2.23;;;3.10;99.90;;;;;;5090814;28;20028;-72
2024/01/27 02:50:53;;;;;;;4.97;3.03;;;3.10;99.90;;;;;;5090938;28;20023;-71
2024/01/27 02:53:19;;;;;;;5.23;2.33;;;3.10;99.90;;;;;;5091007;28;20020;-72
2024/01/27 02:55:44;;;;;;;7.57;2.70;;;3.10;99.90;;;;;;5091308;28;20020;-72
2024/01/27 02:58:10;;;;;;;6.33;2.80;;;3.20;99.90;;;;;;5094710;28;20032;-71
2024/01/27 03:00:35;;;;;;;9.30;3.37;;;3.30;99.90;;;;;;5095410;28;20078;-72
2024/01/27 03:03:01;;;;;;;8.80;3.50;;;3.30;99.90;;;;;;5094240;28;20510;-72
2024/01/27 03:05:27;;;;;;;7.67;3.10;;;3.50;99.90;;;;;;5094169;28;20020;-73
2024/01/27 03:07:52;;;;;;;5.37;2.30;;;3.50;99.90;;;;;;5096023;28;20043;-72
2024/01/27 03:10:18;;;;;;;3.87;2.23;;;3.20;99.90;;;;;;5094578;28;20107;-71
2024/01/27 03:12:43;;;;;;;5.17;2.70;;;3.10;99.90;;;;;;5094260;28;20020;-72
2024/01/27 03:15:09;;;;;;;5.03;2.20;;;2.90;99.90;;;;;;5095824;28;20056;-71
2024/01/27 03:17:35;;;;;;;4.70;2.40;;;2.80;99.90;;;;;;5093782;28;20020;-72
2024/01/27 03:20:00;;;;;;;3.80;2.00;;;2.80;99.90;;;;;;5095199;28;20027;-72
2024/01/27 03:22:26;;;;;;;6.47;2.70;;;2.80;99.90;;;;;;5093825;28;20460;-82
2024/01/27 03:24:53;;;;;;;5.97;2.80;;;2.80;99.90;;;;;;5093597;28;20342;-72
2024/01/27 03:27:18;;;;;;;4.03;2.20;;;2.90;99.90;;;;;;5093873;28;20421;-72
2024/01/27 03:29:44;;;;;;;6.83;2.27;;;2.90;99.90;;;;;;5093262;28;20119;-72
2024/01/27 03:32:09;;;;;;;5.53;2.50;;;2.90;99.90;;;;;;5094036;28;20022;-72
2024/01/27 03:34:35;;;;;;;7.57;2.40;;;2.90;99.90;;;;;;5094694;28;20027;-72
2024/01/27 03:37:01;;;;;;;5.13;2.50;;;2.80;99.90;;;;;;5094056;28;20399;-72
2024/01/27 03:39:26;;;;;;;8.83;2.80;;;2.80;99.90;;;;;;5094832;28;20111;-80
2024/01/27 03:41:52;;;;;;;7.43;3.00;;;2.80;99.90;;;;;;5096921;28;20081;-72
2024/01/27 03:44:17;;;;;;;7.00;2.63;;;2.80;99.90;;;;;;5115530;28;20393;-72
2024/01/27 03:46:43;;;;;;;5.03;2.50;;;2.80;99.90;;;;;;5114583;28;20020;-72
2024/01/27 03:49:08;;;;;;;4.93;2.80;;;2.70;99.90;;;;;;5115636;28;20076;-72
2024/01/27 03:51:34;;;;;;;4.50;2.27;;;2.80;99.90;;;;;;5096892;28;20047;-72
2024/01/27 03:53:59;;;;;;;5.10;2.60;;;2.80;99.90;;;;;;5115191;28;20020;-72
2024/01/27 03:56:25;;;;;;;4.53;2.50;;;2.70;99.90;;;;;;5096826;28;20028;-81
2024/01/27 03:58:51;;;;;;;4.27;2.23;;;2.60;99.90;;;;;;5096705;28;20506;-72
2024/01/27 04:01:16;;;;;;;8.17;3.17;;;2.60;99.90;;;;;;5097106;28;20022;-72
2024/01/27 04:03:42;;;;;;;5.60;2.83;;;2.80;99.90;;;;;;5096249;28;20020;-72
2024/01/27 04:06:07;;;;;;;3.53;2.70;;;2.80;99.90;;;;;;5096327;28;20019;-71
2024/01/27 04:08:33;;;;;;;4.93;2.47;;;2.90;99.90;;;;;;5096129;28;20030;-72
2024/01/27 04:10:58;;;;;;;4.63;2.43;;;2.80;99.90;;;;;;5096889;28;20024;-72
2024/01/27 04:13:24;;;;;;;4.93;2.37;;;2.80;99.90;;;;;;5096826;28;20467;-72
2024/01/27 04:15:51;;;;;;;5.70;2.37;;;2.60;99.90;;;;;;5114275;28;20073;-72
2024/01/27 04:18:17;;;;;;;6.00;2.63;;;2.60;99.90;;;;;;5096485;28;20070;-72
2024/01/27 04:20:42;;;;;;;6.10;2.80;;;2.60;99.90;;;;;;5096038;28;20047;-72
2024/01/27 04:23:08;;;;;;;6.63;2.90;;;2.60;99.90;;;;;;5114909;28;20051;-72
2024/01/27 04:25:33;;;;;;;9.83;2.63;;;2.50;99.90;;;;;;5114335;28;20020;-71
2024/01/27 04:27:59;;;;;;;4.67;2.40;;;2.50;99.90;;;;;;5096436;28;20035;-71
2024/01/27 04:30:25;;;;;;;4.60;2.13;;;2.50;99.90;;;;;;5114845;28;20035;-72
2024/01/27 04:32:51;;;;;;;4.27;2.30;;;2.40;99.90;;;;;;5096087;28;20110;-72
2024/01/27 04:35:17;;;;;;;9.00;2.73;;;2.40;99.90;;;;;;5096361;28;20024;-72
2024/01/27 04:37:44;;;;;;;3.97;2.60;;;2.40;99.90;;;;;;5095790;28;20114;-72
2024/01/27 04:40:10;;;;;;;8.97;2.27;;;2.30;99.90;;;;;;5096221;28;20405;-72
2024/01/27 04:42:38;;;;;;;6.30;2.80;;;2.20;99.90;;;;;;5113585;28;20048;-72
2024/01/27 04:45:05;;;;;;;3.40;1.90;;;2.30;99.90;;;;;;5096296;28;20072;-72
2024/01/27 04:47:30;;;;;;;4.73;2.40;;;2.00;99.90;;;;;;5095801;28;20041;-83
2024/01/27 04:49:57;;;;;;;3.80;2.00;;;2.10;99.90;;;;;;5095598;28;20106;-72
2024/01/27 04:52:23;;;;;;;4.23;2.23;;;2.10;99.90;;;;;;5095574;28;20016;-72
2024/01/27 04:54:49;;;;;;;8.70;2.77;;;2.10;99.90;;;;;;5113183;28;20032;-72
2024/01/27 04:57:16;;;;;;;5.00;2.30;;;2.10;99.90;;;;;;5113897;28;20027;-71
2024/01/27 04:59:41;;;;;;;7.60;2.50;;;1.90;99.90;;;;;;5095548;28;20063;-72
2024/01/27 05:02:07;;;;;;;7.23;2.93;;;1.70;99.90;;;;;;5114461;28;20097;-72
2024/01/27 05:04:32;;;;;;;6.17;2.73;;;1.80;99.90;;;;;;5095686;28;20019;-79
2024/01/27 05:06:58;;;;;;;9.10;2.97;;;1.80;99.90;;;;;;5095916;28;20368;-72
2024/01/27 05:09:24;;;;;;;4.30;2.40;;;1.80;99.90;;;;;;5095801;28;20055;-71
2024/01/27 05:11:52;;;;;;;5.53;2.70;;;1.90;99.90;;;;;;5095264;28;20034;-72
2024/01/27 05:14:18;;;;;;;10.73;2.87;;;1.90;99.90;;;;;;5113966;28;20444;-71
2024/01/27 05:16:43;;;;;;;6.20;2.80;;;1.80;99.90;;;;;;5113490;28;20023;-72
2024/01/27 05:19:10;;;;;;;4.83;2.30;;;1.90;99.90;;;;;;5113003;28;20027;-72
2024/01/27 05:21:36;;;;;;;5.37;2.40;;;1.90;99.90;;;;;;5094878;28;20080;-72
2024/01/27 05:24:01;;;;;;;3.50;2.10;;;1.90;99.90;;;;;;5113811;28;20023;-72
2024/01/27 05:26:27;;;;;;;4.37;2.10;;;1.90;99.90;;;;;;5113716;28;20133;-72
2024/01/27 05:28:53;;;;;;;5.63;2.90;;;1.70;99.90;;;;;;5095014;28;20111;-71
2024/01/27 05:31:18;;;;;;;4.77;2.53;;;1.80;99.90;;;;;;5095447;28;20020;-71
2024/01/27 05:33:44;;;;;;;4.97;2.27;;;1.80;99.90;;;;;;5094916;28;20031;-71
2024/01/27 05:36:09;;;;;;;4.03;2.50;;;1.70;99.90;;;;;;5113453;28;20015;-71
2024/01/27 05:38:35;;;;;;;4.80;2.73;;;1.70;99.90;;;;;;5094566;28;20031;-81
2024/01/27 05:41:01;;;;;;;4.77;2.40;;;1.70;99.90;;;;;;5113299;28;20019;-71
2024/01/27 05:43:28;;;;;;;3.20;1.90;;;1.70;99.90;;;;;;5094716;28;20391;-72
2024/01/27 05:45:53;;;;;;;4.97;2.10;;;1.70;99.90;;;;;;5112911;28;20092;-72
2024/01/27 05:48:19;;;;;;;4.23;2.47;;;1.60;99.90;;;;;;5113107;28;20456;-72
2024/01/27 05:50:58;;;;;;;6.43;2.30;;;1.60;99.90;;;;;;5094105;28;20020;-71
2024/01/27 05:53:25;;;;;;;8.23;2.77;;;1.50;99.90;;;;;;5113162;28;20039;-72
2024/01/27 05:55:51;;;;;;;4.57;2.03;;;1.50;99.90;;;;;;5112523;28;20023;-72
2024/01/27 05:58:17;;;;;;;4.37;2.20;;;1.50;99.90;;;;;;5113284;28;20038;-72
2024/01/27 06:00:46;;;;;;;5.73;2.50;;;1.60;99.90;;;;;;5112321;28;20023;-72
2024/01/27 06:03:12;;;;;;;6.73;2.27;;;1.60;99.90;;;;;;5094997;28;20015;-73
2024/01/27 06:05:37;;;;;;;3.57;2.20;;;1.50;99.90;;;;;;5094071;28;20516;-77
2024/01/27 06:08:04;;;;;;;4.97;2.27;;;1.60;99.90;;;;;;5112787;28;20069;-72
2024/01/27 06:10:31;;;;;;;5.67;2.17;;;1.60;99.90;;;;;;5112718;28;20027;-72
2024/01/27 06:12:57;;;;;;;4.17;2.20;;;1.60;99.90;;;;;;5094380;28;20027;-72
2024/01/27 06:15:23;;;;;;;3.57;2.20;;;1.60;99.90;;;;;;5094901;28;20076;-71
2024/01/27 06:17:48;;;;;;;4.43;2.10;;;1.60;99.90;;;;;;5094245;28;20024;-72
2024/01/27 06:20:16;;;;;;;4.37;2.30;;;1.60;99.90;;;;;;5094642;28;20052;-71
2024/01/27 06:22:41;;;;;;;6.33;2.10;;;1.60;99.90;;;;;;5112224;28;20394;-71
2024/01/27 06:25:08;;;;;;;4.07;2.20;;;1.60;99.90;;;;;;5094816;28;20030;-71
2024/01/27 06:27:34;;;;;;;2.23;1.43;;;1.60;99.90;;;;;;5094133;28;20020;-72
2024/01/27 06:29:59;;;;;;;3.63;2.20;;;1.50;99.90;;;;;;5113926;28;20027;-72
2024/01/27 06:32:25;;;;;;;4.50;1.87;;;1.50;99.90;;;;;;5116816;28;20023;-72
2024/01/27 06:34:50;;;;;;;3.93;1.90;;;1.50;99.90;;;;;;5098270;28;20023;-72
2024/01/27 06:37:16;;;;;;;3.83;2.20;;;1.50;99.90;;;;;;5099001;28;20020;-72
2024/01/27 06:39:42;;;;;;;3.90;2.13;;;1.40;99.90;;;;;;5116461;28;20421;-72
2024/01/27 06:42:07;;;;;;;6.90;2.33;;;1.30;99.90;;;;;;5116874;28;20100;-72
2024/01/27 06:44:33;;;;;;;6.53;2.00;;;1.30;99.90;;;;;;5098653;28;20016;-72
2024/01/27 06:46:58;;;;;;;7.17;2.03;;;1.30;99.90;;;;;;5098170;28;20677;-72
2024/01/27 06:49:24;;;;;;;5.87;2.13;;;1.30;99.90;;;;;;5098637;28;20032;-72
2024/01/27 06:51:49;;;;;;;4.43;2.03;;;1.40;99.90;;;;;;5098081;28;20115;-72
2024/01/27 06:54:15;;;;;;;5.23;1.83;;;1.40;99.90;;;;;;5098309;28;20337;-71
2024/01/27 06:56:40;;;;;;;9.80;2.40;;;1.40;99.90;;;;;;5116273;28;20027;-72
2024/01/27 06:59:06;;;;;;;6.33;2.73;;;1.30;99.90;;;;;;5116746;28;20080;-72
2024/01/27 07:01:31;;;;;;;3.80;1.90;;;1.40;99.90;;;;;;5098237;28;20100;-72
2024/01/27 07:03:57;;;;;;;5.13;2.30;;;1.30;99.90;;;;;;5097773;28;20019;-72
2024/01/27 07:06:23;;;;;;;7.53;2.50;;;1.30;99.90;;;;;;5098048;28;20027;-72
2024/01/27 07:08:48;;;;;;;6.10;2.40;;;1.40;99.90;;;;;;5115813;28;20396;-72
2024/01/27 07:11:14;;;;;;;6.43;2.07;;;1.40;99.90;;;;;;5116073;28;20105;-72
2024/01/27 07:13:41;;;;;;;7.20;3.47;;;1.30;99.90;;;;;;5097416;28;20031;-73
2024/01/27 07:16:06;;;;;;;6.93;2.60;;;1.40;99.90;;;;;;5116275;28;20087;-72
2024/01/27 07:18:34;;;;;;;4.37;2.40;;;1.30;99.90;;;;;;5116138;28;20114;-71
2024/01/27 07:21:01;;;;;;;4.57;2.20;;;1.30;99.90;;;;;;5097309;28;20023;-72
2024/01/27 07:23:26;;;;;;;6.43;2.30;;;1.30;99.90;;;;;;5097907;28;20027;-72
2024/01/27 07:25:52;;;;;;;5.10;2.17;;;1.30;99.90;;;;;;5097328;28;20388;-72
2024/01/27 07:28:18;;;;;;;5.07;2.07;;;1.30;99.90;;;;;;5116327;28;20030;-72
2024/01/27 07:30:44;;;;;;;6.13;1.83;;;1.20;99.90;;;;;;5115493;28;20077;-72
2024/01/27 07:33:10;;;;;;;4.73;1.87;;;1.10;99.90;;;;;;5097637;28;20026;-72
2024/01/27 07:35:35;;;;;;;2.97;1.70;;;1.20;99.90;;;;;;5097618;28;20106;-72
2024/01/27 07:38:01;;;;;;;7.70;2.30;;;1.30;99.90;;;;;;5097082;28;20076;-72
2024/01/27 07:40:27;;;;;;;4.50;2.10;;;1.20;99.90;;;;;;5115749;28;20460;-72
2024/01/27 07:42:52;;;;;;;8.50;2.30;;;1.20;99.90;;;;;;5114375;28;20040;-72
2024/01/27 07:45:18;;;;;;;7.17;2.27;;;1.20;99.90;;;;;;5097396;28;20414;-72
2024/01/27 07:47:43;;;;;;;4.10;2.07;;;1.20;99.90;;;;;;5096557;28;20019;-76
2024/01/27 07:50:09;;;;;;;5.93;2.10;;;1.30;99.90;;;;;;5097137;28;20026;-71
2024/01/27 07:52:36;;;;;;;4.03;1.97;;;1.40;99.90;;;;;;5097218;28;20448;-71
2024/01/27 07:55:01;;;;;;;5.47;2.10;;;1.40;99.90;;;;;;5096574;28;20024;-72
2024/01/27 07:57:28;;;;;;;3.03;1.87;;;1.50;99.90;;;;;;5097065;28;20027;-72
2024/01/27 07:59:54;;;;;;;4.60;1.70;;;1.50;99.90;;;;;;5096221;28;20031;-72
2024/01/27 08:02:20;;;;;;;3.20;1.67;;;1.50;99.90;;;;;;5096983;28;20022;-71
2024/01/27 08:04:45;;;;;;;3.50;1.80;;;1.50;99.90;;;;;;5114413;28;20023;-72
2024/01/27 08:07:11;;;;;;;4.23;2.07;;;1.50;99.90;;;;;;5096770;28;20128;-72
2024/01/27 08:09:38;;;;;;;3.93;2.00;;;1.40;99.90;;;;;;5115163;28;20049;-72
2024/01/27 08:12:03;;;;;;;4.40;1.97;;;1.40;99.90;;;;;;5096307;28;20030;-72
2024/01/27 08:14:33;;;;;;;5.47;2.13;;;1.50;99.90;;;;;;5115196;28;20098;-71
2024/01/27 08:16:59;;;;;;;3.97;1.80;;;1.50;99.90;;;;;;5114612;28;20195;-72
2024/01/27 08:19:25;;;;;;;5.37;2.30;;;1.60;99.90;;;;;;5096548;28;20126;-71
2024/01/27 08:21:50;;;;;;;4.27;2.07;;;1.60;99.90;;;;;;5096112;28;20475;-71
2024/01/27 08:24:16;;;;;;;7.33;3.50;;;1.60;99.90;;;;;;5096631;28;20020;-71
2024/01/27 08:26:42;;;;;;;6.90;3.27;;;1.60;99.90;;;;;;5096461;28;20021;-80
2024/01/27 08:29:08;;;;;;;6.00;2.30;;;1.70;99.90;;;;;;5114538;28;20101;-71
2024/01/27 08:31:34;;;;;;;4.70;2.50;;;1.80;99.90;;;;;;5096651;28;20368;-71
2024/01/27 08:34:00;;;;;;;5.70;2.23;;;1.90;99.90;;;;;;5096073;28;20114;-71
2024/01/27 08:36:25;;;;;;;3.70;1.83;;;1.90;99.90;;;;;;5096564;28;20061;-71
2024/01/27 08:38:51;;;;;;;5.23;2.50;;;2.00;99.90;;;;;;5095779;28;20032;-72
2024/01/27 08:41:16;;;;;;;6.03;2.57;;;2.00;99.90;;;;;;5114855;28;20031;-71
2024/01/27 08:43:42;;;;;;;4.70;2.40;;;2.00;99.90;;;;;;5114437;28;20487;-87
2024/01/27 08:46:11;;;;;;;6.00;1.93;;;2.10;99.90;;;;;;5096250;28;20076;-72
2024/01/27 08:48:36;;;;;;;5.20;2.20;;;2.10;99.90;;;;;;5114253;28;20119;-72
2024/01/27 08:51:02;;;;;;;5.03;2.60;;;2.20;99.90;;;;;;5113847;28;20556;-72
2024/01/27 08:53:28;;;;;;;5.93;1.93;;;2.20;99.90;;;;;;5113838;28;20460;-72
2024/01/27 08:55:54;;;;;;;2.73;2.10;;;2.20;99.90;;;;;;5095408;28;20098;-72
2024/01/27 08:58:19;;;;;;;5.77;2.20;;;2.20;99.90;;;;;;5095501;28;20035;-72
2024/01/27 09:00:45;;;;;;;4.87;2.30;;;2.20;99.90;;;;;;5095203;28;20433;-72
2024/01/27 09:03:12;;;;;;;6.53;2.50;;;2.30;99.90;;;;;;5092078;28;20020;-72
2024/01/27 09:05:38;;;;;;;8.67;2.53;;;2.40;99.90;;;;;;5093688;28;20023;-73
2024/01/27 09:08:04;;;;;;;5.80;2.63;;;2.50;99.90;;;;;;5091859;28;20028;-72
2024/01/27 09:10:30;;;;;;;4.80;2.40;;;2.60;99.90;;;;;;5092584;28;20081;-72
2024/01/27 09:12:55;;;;;;;5.87;2.53;;;2.70;99.90;;;;;;5091628;28;20030;-72
2024/01/27 09:15:21;;;;;;;7.63;2.67;;;2.80;99.90;;;;;;5092317;28;20098;-72
2024/01/27 09:17:48;;;;;;;6.43;3.23;;;2.80;99.90;;;;;;5092048;28;20391;-79
2024/01/27 09:20:14;;;;;;;6.00;3.10;;;2.80;99.90;;;;;;5093498;28;20017;-73
2024/01/27 09:22:41;;;;;;;7.20;3.17;;;2.80;99.90;;;;;;5092100;28;20076;-72
2024/01/27 09:25:08;;;;;;;6.40;3.40;;;2.80;99.90;;;;;;5092418;28;20023;-72
2024/01/27 09:27:34;;;;;;;7.43;3.00;;;2.90;99.90;;;;;;5091663;28;20449;-72
2024/01/27 09:29:59;;;;;;;6.30;3.33;;;2.90;99.90;;;;;;5092387;28;20028;-73
2024/01/27 09:32:25;;;;;;;8.87;3.10;;;2.90;99.90;;;;;;5092755;28;20503;-76
2024/01/27 09:34:53;;;;;;;7.20;3.17;;;3.00;99.90;;;;;;5092310;28;20477;-73
2024/01/27 09:37:19;;;;;;;7.13;2.73;;;3.00;99.90;;;;;;5092524;28;20077;-72
2024/01/27 09:39:44;;;;;;;5.03;2.90;;;3.00;99.90;;;;;;5093561;28;20445;-73
2024/01/27 09:42:13;;;;;;;9.13;2.60;;;3.10;99.90;;;;;;5112535;28;20376;-72
2024/01/27 09:44:39;;;;;;;4.97;2.83;;;3.20;99.90;;;;;;5095178;28;20026;-72
2024/01/27 09:47:05;;;;;;;7.93;2.90;;;3.20;99.90;;;;;;5094573;28;20026;-72
2024/01/27 09:49:32;;;;;;;3.73;2.27;;;3.30;99.90;;;;;;5113029;28;20031;-72
2024/01/27 09:51:57;;;;;;;6.93;2.50;;;3.30;99.90;;;;;;5094159;28;20073;-72
2024/01/27 09:54:23;;;;;;;7.90;2.70;;;3.30;99.90;;;;;;5113007;28;20024;-78
2024/01/27 09:56:50;;;;;;;6.93;2.70;;;3.30;99.90;;;;;;5094031;28;20114;-73
2024/01/27 09:59:18;;;;;;;5.80;2.63;;;3.40;99.90;;;;;;5094904;28;20035;-73
2024/01/27 10:01:45;;;;;;;5.17;2.93;;;3.40;99.90;;;;;;5094469;28;20027;-73
2024/01/27 10:04:11;;;;;;;3.97;2.30;;;3.50;99.90;;;;;;5113593;28;20032;-72
2024/01/27 10:06:37;;;;;;;4.67;2.10;;;3.50;99.90;;;;;;5100651;28;20478;-72
2024/01/27 10:09:02;;;;;;;6.37;2.40;;;3.60;99.90;;;;;;5100983;28;20059;-73
2024/01/27 10:11:29;;;;;;;4.57;2.33;;;3.70;99.90;;;;;;5101386;28;20027;-72
2024/01/27 10:14:02;;;;;;;6.80;3.37;;;3.70;99.90;;;;;;5100297;28;20020;-73
2024/01/27 10:16:28;;;;;;;6.43;3.07;;;3.80;99.90;;;;;;5101499;28;20115;-73
2024/01/27 10:19:03;;;;;;;5.10;2.30;;;3.90;99.90;;;;;;5100953;28;20115;-72
2024/01/27 10:21:29;;;;;;;6.53;3.00;;;4.00;99.90;;;;;;5101184;28;20073;-72
2024/01/27 10:23:54;;;;;;;4.40;2.43;;;4.00;99.90;;;;;;5119215;28;20019;-73
2024/01/27 10:26:20;;;;;;;4.87;2.13;;;4.10;99.90;;;;;;5119666;28;20019;-73
2024/01/27 10:28:56;;;;;;;11.00;3.20;;;4.10;99.90;;;;;;5102970;28;20444;-72
2024/01/27 10:31:26;;;;;;;8.57;2.70;;;4.10;99.90;;;;;;5119452;28;20015;-72
2024/01/27 10:33:53;;;;;;;4.67;2.53;;;4.10;99.90;;;;;;5118830;28;20463;-79
2024/01/27 10:36:19;;;;;;;6.10;2.27;;;4.20;99.90;;;;;;5100573;28;20019;-74
2024/01/27 10:38:45;;;;;;;6.13;1.87;;;4.20;99.90;;;;;;5119407;28;20041;-73
2024/01/27 10:41:10;;;;;;;5.63;2.03;;;4.30;99.90;;;;;;5100644;28;20015;-70
2024/01/27 10:43:37;;;;;;;7.80;2.37;;;4.30;99.90;;;;;;5100802;28;20173;-70
2024/01/27 10:46:06;;;;;;;5.40;1.83;;;4.50;99.90;;;;;;5100565;28;20027;-73
2024/01/27 10:48:36;;;;;;;7.87;2.70;;;4.50;99.90;;;;;;5100522;28;20055;-74
2024/01/27 10:51:07;;;;;;;5.93;2.20;;;4.60;99.90;;;;;;5119200;28;20107;-73
2024/01/27 10:53:37;;;;;;;5.17;2.60;;;4.60;99.90;;;;;;5099912;28;20067;-85
2024/01/27 10:56:08;;;;;;;6.67;2.20;;;4.70;99.90;;;;;;5097720;28;20027;-77
2024/01/27 10:58:40;;;;;;;4.70;1.83;;;4.70;99.90;;;;;;5100527;28;20057;-77
2024/01/27 11:01:10;;;;;;;6.40;1.90;;;4.70;99.90;;;;;;5099745;28;20034;-77
2024/01/27 11:03:39;;;;;;;4.17;2.10;;;4.70;99.90;;;;;;5099534;28;20046;-76
2024/01/27 11:06:05;;;;;;;4.33;1.97;;;4.70;99.90;;;;;;5099295;28;20106;-75
2024/01/27 11:08:33;;;;;;;6.90;2.17;;;4.70;99.90;;;;;;5118015;28;20068;-75
2024/01/27 11:10:59;;;;;;;6.87;2.10;;;4.70;99.90;;;;;;5098412;28;20019;-77
2024/01/27 11:13:27;;;;;;;6.17;1.80;;;4.80;99.90;;;;;;5117594;28;20518;-74
2024/01/27 11:15:53;;;;;;;4.43;1.73;;;4.80;99.90;;;;;;5097244;28;20055;-74
2024/01/27 11:18:19;;;;;;;6.87;1.90;;;4.90;99.90;;;;;;5114590;28;20020;-74
2024/01/27 11:20:45;;;;;;;6.67;1.93;;;5.00;99.90;;;;;;5114329;28;20023;-74
2024/01/27 11:23:14;;;;;;;8.50;2.30;;;5.10;99.90;;;;;;5113853;28;20084;-75
2024/01/27 11:25:40;;;;;;;5.30;2.17;;;5.20;99.90;;;;;;5114354;28;20081;-77
2024/01/27 11:28:16;;;;;;;7.57;2.23;;;5.20;99.90;;;;;;5095799;28;20165;-75
2024/01/27 11:30:49;;;;;;;7.23;2.27;;;5.30;99.90;;;;;;5097028;28;20031;-74
2024/01/27 11:33:15;;;;;;;6.20;2.20;;;5.40;99.90;;;;;;5096463;28;20026;-74
2024/01/27 11:35:41;;;;;;;3.10;2.00;;;5.40;99.90;;;;;;5115155;28;20015;-78
2024/01/27 11:38:06;;;;;;;5.20;1.50;;;5.50;99.90;;;;;;5114907;28;20364;-74
2024/01/27 11:40:33;;;;;;;3.03;1.67;;;5.50;99.90;;;;;;5115044;28;20020;-75
2024/01/27 11:43:00;;;;;;;3.17;2.00;;;5.50;99.90;;;;;;5114760;28;20035;-75
2024/01/27 11:45:30;;;;;;;7.60;2.10;;;5.60;99.90;;;;;;5097076;28;20055;-75
2024/01/27 11:47:56;;;;;;;8.93;1.93;;;5.60;99.90;;;;;;5096152;28;20467;-80
2024/01/27 11:50:22;;;;;;;8.13;1.70;;;5.70;99.90;;;;;;5096573;28;20073;-74
2024/01/27 11:52:48;;;;;;;6.47;1.90;;;5.80;99.90;;;;;;5096632;28;20023;-74
2024/01/27 11:55:18;;;;;;;8.87;1.60;;;5.80;99.90;;;;;;5114092;28;20027;-75
2024/01/27 11:57:44;;;;;;;4.13;1.43;;;5.80;99.90;;;;;;5114546;28;20015;-75
2024/01/27 12:00:10;;;;;;;3.47;1.60;;;5.80;99.90;;;;;;5114473;28;20085;-73
2024/01/27 12:02:37;;;;;;;9.33;2.27;;;5.90;99.90;;;;;;5096528;28;20031;-75
2024/01/27 12:05:04;;;;;;;9.77;2.10;;;6.00;99.90;;;;;;5095677;28;20398;-75
2024/01/27 12:07:30;;;;;;;7.43;1.67;;;6.00;99.90;;;;;;5095270;28;20024;-73
2024/01/27 12:09:55;;;;;;;5.27;1.60;;;6.10;99.90;;;;;;5094879;28;20084;-73
2024/01/27 12:12:21;;;;;;;8.57;1.70;;;6.20;99.90;;;;;;5095794;28;20020;-73
2024/01/27 12:14:48;;;;;;;5.67;1.70;;;6.30;99.90;;;;;;5096069;28;20073;-74
2024/01/27 12:17:15;;;;;;;5.53;2.00;;;6.40;99.90;;;;;;5096638;28;20446;-72
2024/01/27 12:19:47;;;;;;;6.20;2.10;;;6.50;99.90;;;;;;5095470;28;20059;-77
2024/01/27 12:22:26;;;;;;;5.90;2.10;;;6.70;99.90;;;;;;5112997;28;20015;-73
2024/01/27 12:24:52;;;;;;;4.80;2.20;;;6.80;99.90;;;;;;5096100;28;20026;-75
2024/01/27 12:27:18;;;;;;;5.70;2.40;;;6.90;99.90;;;;;;5095480;28;20080;-74
2024/01/27 12:29:43;;;;;;;10.98;2.33;;;7.10;99.90;;;;;;5095983;28;20457;-75
2024/01/27 12:32:09;;;;;;;4.18;2.03;;;7.30;99.90;;;;;;5113793;28;20024;-73
2024/01/27 12:34:47;;;;;;;6.22;2.70;;;7.40;99.90;;;;;;5096413;28;20020;-74
2024/01/27 12:37:13;;;;;;;6.63;2.33;;;7.60;99.90;;;;;;5095919;28;20111;-73
2024/01/27 12:39:44;;;;;;;7.32;2.20;;;7.80;99.90;;;;;;5096292;28;20106;-74
2024/01/27 12:42:10;;;;;;;5.40;2.20;;;8.00;99.90;;;;;;5113687;28;20423;-74
2024/01/27 12:44:36;;;;;;;10.82;2.65;;;8.10;99.90;;;;;;5095927;28;20574;-74
2024/01/27 12:47:02;;;;;;;7.55;3.17;;;8.30;99.90;;;;;;5093739;28;20106;-74
2024/01/27 12:49:29;;;;;;;8.35;2.60;;;8.30;99.90;;;;;;5095374;28;20108;-75
2024/01/27 12:51:55;;;;;;;5.97;2.45;;;8.40;99.90;;;;;;5113200;28;20023;-81